Hawley, Texas
Current Conditions -  °F | °C
As of 11:58 PM on Monday 20 Oct 2014 (Local Time) from KDYS Reporting Station
Clear Clear  
Wind Chill: 63°   Ceiling: Unl
Heat Index: 63°   Visibility: 10mi
Dew Point: 53°   Wind: 6mph
Humidity: 71%   Direction: 180°S
Pressure: 30.06"   Gusts: NA
Location:  32.61°N, 99.81°W
Report Text: KDYS 210458Z AUTO 18005KT 10SM CLR 17/12 A3006 RMK AO2 SLP146 T01730119
Loading
Personal Weather Stations






























Interactive Weather Map
Tropical Storm Tracking
New forecast layout! Learn more

10-Day Weather Forecast

Advertisements
Track Severe Weather on mobile